createdAt,value
2018-07-30T00:00:02.864Z,21.83
2018-07-30T00:02:37.125Z,21.93
2018-07-30T00:05:08.314Z,21.89
2018-07-30T00:07:37.282Z,21.93
2018-07-30T00:10:06.386Z,21.96
2018-07-30T00:12:35.560Z,21.93
2018-07-30T00:15:04.767Z,21.96
2018-07-30T00:17:33.577Z,21.95
2018-07-30T00:20:02.418Z,21.96
2018-07-30T00:22:31.226Z,21.93
2018-07-30T00:24:59.976Z,21.92
2018-07-30T00:27:28.823Z,21.94
2018-07-30T00:29:57.610Z,21.81
2018-07-30T00:32:26.398Z,21.88
2018-07-30T00:34:55.150Z,21.85
2018-07-30T00:37:23.914Z,21.89
2018-07-30T00:39:52.693Z,21.91
2018-07-30T00:42:21.501Z,21.92
2018-07-30T00:44:50.478Z,21.90
2018-07-30T00:47:19.273Z,21.90
2018-07-30T00:49:48.051Z,21.90
2018-07-30T00:52:16.835Z,21.89
2018-07-30T00:54:45.599Z,21.90
2018-07-30T00:57:14.363Z,21.88
2018-07-30T00:59:43.321Z,21.87
2018-07-30T01:02:12.100Z,21.86
2018-07-30T01:04:40.865Z,21.84
2018-07-30T01:07:09.682Z,21.86
2018-07-30T01:09:38.496Z,21.83
2018-07-30T01:12:07.336Z,21.85
2018-07-30T01:14:36.106Z,21.83
2018-07-30T01:17:04.918Z,21.78
2018-07-30T01:19:33.715Z,21.82
2018-07-30T01:22:02.500Z,21.80
2018-07-30T01:24:31.332Z,21.78
2018-07-30T01:27:00.114Z,21.78
2018-07-30T01:29:28.893Z,21.80
2018-07-30T01:31:57.668Z,21.80
2018-07-30T01:34:26.421Z,21.79
2018-07-30T01:36:55.217Z,21.75
2018-07-30T01:39:24.021Z,21.70
2018-07-30T01:41:52.831Z,21.66
2018-07-30T01:44:21.624Z,21.73
2018-07-30T01:46:50.430Z,21.66
2018-07-30T01:49:19.229Z,21.71
2018-07-30T01:51:48.044Z,21.78
2018-07-30T01:54:16.825Z,21.79
2018-07-30T01:56:45.587Z,21.76
2018-07-30T01:59:14.443Z,21.77
2018-07-30T02:01:43.241Z,21.63
2018-07-30T02:04:12.017Z,21.64
2018-07-30T02:06:40.798Z,21.67
2018-07-30T02:09:10.853Z,21.64
2018-07-30T02:11:39.675Z,21.67
2018-07-30T02:14:08.741Z,21.63
2018-07-30T02:16:37.569Z,21.63
2018-07-30T02:19:06.426Z,21.65
2018-07-30T02:21:35.299Z,21.61
2018-07-30T02:24:04.140Z,21.59
2018-07-30T02:26:32.937Z,21.55
2018-07-30T02:29:01.804Z,21.59
2018-07-30T02:31:30.658Z,21.51
2018-07-30T02:33:59.478Z,21.56
2018-07-30T02:36:28.320Z,21.52
2018-07-30T02:38:57.098Z,21.57
2018-07-30T02:41:25.853Z,21.49
2018-07-30T02:43:54.667Z,21.51
2018-07-30T02:46:23.457Z,21.51
2018-07-30T02:48:52.329Z,21.51
2018-07-30T02:51:21.155Z,21.52
2018-07-30T02:53:49.933Z,21.55
2018-07-30T02:56:18.739Z,21.54
2018-07-30T02:58:47.498Z,21.55
2018-07-30T03:01:16.273Z,21.55
2018-07-30T03:03:45.070Z,21.52
2018-07-30T03:06:13.908Z,21.42
2018-07-30T03:08:42.685Z,21.43
2018-07-30T03:11:11.444Z,21.43
2018-07-30T03:13:40.195Z,21.48
2018-07-30T03:16:09.000Z,21.49
2018-07-30T03:18:37.775Z,21.51
2018-07-30T03:21:06.815Z,21.50
2018-07-30T03:23:35.569Z,21.41
2018-07-30T03:26:04.388Z,21.31
2018-07-30T03:28:33.377Z,21.33
2018-07-30T03:31:02.235Z,21.39
2018-07-30T03:33:31.038Z,21.44
2018-07-30T03:35:59.858Z,21.46
2018-07-30T03:38:28.669Z,21.51
2018-07-30T03:40:57.477Z,21.49
2018-07-30T03:43:26.493Z,21.49
2018-07-30T03:45:55.245Z,21.46
2018-07-30T03:48:24.010Z,21.46
2018-07-30T03:50:52.818Z,21.42
2018-07-30T03:53:21.605Z,21.42
2018-07-30T03:55:50.382Z,21.37
2018-07-30T03:58:19.188Z,21.33
2018-07-30T04:00:47.970Z,21.40
2018-07-30T04:03:16.754Z,21.28
2018-07-30T04:05:45.568Z,21.23
2018-07-30T04:08:14.369Z,21.34
2018-07-30T04:10:43.268Z,21.39
2018-07-30T04:13:12.050Z,21.25
2018-07-30T04:15:40.846Z,21.36
2018-07-30T04:18:09.612Z,21.40
2018-07-30T04:20:38.428Z,21.31
2018-07-30T04:23:07.239Z,21.33
2018-07-30T04:25:35.990Z,21.31
2018-07-30T04:28:04.797Z,21.30
2018-07-30T04:30:33.562Z,21.34
2018-07-30T04:33:02.346Z,21.38
2018-07-30T04:35:31.139Z,21.33
2018-07-30T04:37:59.956Z,21.35
2018-07-30T04:40:28.713Z,21.37
2018-07-30T04:42:57.472Z,21.42
2018-07-30T04:45:26.243Z,21.43
2018-07-30T04:47:55.033Z,21.36
2018-07-30T04:50:23.848Z,21.38
2018-07-30T04:52:52.738Z,21.41
2018-07-30T04:55:22.866Z,21.25
2018-07-30T04:57:51.614Z,21.21
2018-07-30T05:00:20.405Z,21.22
2018-07-30T05:02:49.220Z,21.36
2018-07-30T05:05:17.998Z,21.25
2018-07-30T05:07:46.749Z,21.23
2018-07-30T05:10:15.509Z,21.18
2018-07-30T05:12:44.284Z,21.21
2018-07-30T05:15:13.051Z,21.26
2018-07-30T05:17:41.959Z,21.34
2018-07-30T05:20:10.766Z,21.46
2018-07-30T05:22:39.583Z,21.40
2018-07-30T05:25:08.367Z,21.27
2018-07-30T05:27:37.129Z,21.30
2018-07-30T05:30:06.557Z,21.40
2018-07-30T05:32:35.329Z,21.46
2018-07-30T05:35:04.310Z,21.54
2018-07-30T05:37:33.113Z,21.34
2018-07-30T05:40:01.948Z,21.56
2018-07-30T05:42:30.988Z,21.60
2018-07-30T05:44:59.785Z,21.58
2018-07-30T05:47:28.576Z,21.61
2018-07-30T05:49:57.373Z,21.52
2018-07-30T05:52:26.162Z,21.57
2018-07-30T05:54:54.925Z,21.27
2018-07-30T05:57:23.698Z,21.51
2018-07-30T05:59:52.472Z,21.56
2018-07-30T06:02:21.275Z,21.62
2018-07-30T06:04:50.065Z,21.63
2018-07-30T06:07:18.841Z,21.55
2018-07-30T06:09:47.662Z,21.58
2018-07-30T06:12:16.417Z,21.61
2018-07-30T06:14:45.185Z,21.54
2018-07-30T06:17:13.941Z,21.62
2018-07-30T06:19:42.734Z,21.56
2018-07-30T06:22:11.563Z,21.61
2018-07-30T06:24:40.355Z,21.71
2018-07-30T06:27:09.158Z,21.49
2018-07-30T06:29:37.958Z,21.74
2018-07-30T06:32:06.816Z,21.79
2018-07-30T06:34:35.684Z,21.82
2018-07-30T06:37:04.528Z,21.82
2018-07-30T06:39:33.310Z,21.71
2018-07-30T06:42:02.082Z,21.81
2018-07-30T06:44:30.862Z,21.88
2018-07-30T06:46:59.689Z,21.94
2018-07-30T06:49:28.460Z,21.86
2018-07-30T06:51:57.305Z,21.83
2018-07-30T06:54:26.082Z,21.86
2018-07-30T06:56:54.948Z,21.95
2018-07-30T06:59:23.777Z,21.91
2018-07-30T07:01:53.253Z,21.90
2018-07-30T07:04:22.341Z,21.88
2018-07-30T07:06:51.149Z,21.92
2018-07-30T07:09:19.937Z,21.97
2018-07-30T07:11:48.747Z,22.00
2018-07-30T07:14:17.531Z,22.01
2018-07-30T07:16:49.998Z,21.98
2018-07-30T07:19:18.821Z,21.94
2018-07-30T07:21:47.752Z,21.95
2018-07-30T07:24:16.890Z,22.05
2018-07-30T07:26:45.766Z,21.86
2018-07-30T07:29:14.587Z,22.03
2018-07-30T07:31:43.446Z,22.01
2018-07-30T07:34:12.250Z,22.10
2018-07-30T07:36:41.106Z,22.12
2018-07-30T07:39:10.812Z,22.07
2018-07-30T07:41:39.694Z,22.04
2018-07-30T07:44:08.566Z,22.07
2018-07-30T07:46:37.687Z,22.11
2018-07-30T07:49:06.582Z,22.07
2018-07-30T07:51:39.211Z,22.10
2018-07-30T07:54:07.990Z,22.12
2018-07-30T07:56:36.835Z,22.20
2018-07-30T07:59:05.746Z,22.22
2018-07-30T08:01:34.543Z,22.29
2018-07-30T08:04:03.372Z,22.30
2018-07-30T08:06:32.255Z,22.24
2018-07-30T08:09:01.031Z,22.33
2018-07-30T08:11:29.902Z,22.30
2018-07-30T08:13:58.747Z,22.29
2018-07-30T08:16:27.576Z,22.41
2018-07-30T08:18:56.403Z,22.47
2018-07-30T08:21:25.223Z,22.51
2018-07-30T08:23:54.087Z,22.54
2018-07-30T08:26:22.943Z,22.57
2018-07-30T08:28:51.929Z,22.58
2018-07-30T08:31:20.791Z,22.65
2018-07-30T08:33:49.627Z,22.70
2018-07-30T08:36:18.634Z,22.74
2018-07-30T08:38:47.494Z,22.78
2018-07-30T08:41:16.386Z,22.88
2018-07-30T08:43:45.238Z,22.88
2018-07-30T08:46:14.071Z,22.94
2018-07-30T08:48:42.922Z,23.03
2018-07-30T08:51:11.714Z,23.03
2018-07-30T08:53:40.537Z,22.99
2018-07-30T08:56:09.365Z,23.01
2018-07-30T08:58:38.169Z,23.00
2018-07-30T09:01:07.182Z,23.04
2018-07-30T09:03:36.011Z,23.12
2018-07-30T09:06:04.862Z,23.26
2018-07-30T09:08:33.679Z,23.31
2018-07-30T09:11:02.523Z,23.33
2018-07-30T09:13:31.301Z,23.37
2018-07-30T09:16:00.102Z,23.42
2018-07-30T09:18:28.918Z,23.51
2018-07-30T09:20:57.745Z,23.50
2018-07-30T09:23:26.553Z,23.64
2018-07-30T09:25:55.401Z,23.62
2018-07-30T09:28:24.256Z,23.72
2018-07-30T09:30:53.070Z,23.81
2018-07-30T09:33:21.946Z,23.80
2018-07-30T09:35:50.794Z,23.80
2018-07-30T09:38:19.608Z,23.83
2018-07-30T09:40:48.441Z,23.85
2018-07-30T09:43:17.242Z,23.90
2018-07-30T09:45:46.059Z,23.90
2018-07-30T09:48:14.930Z,23.89
2018-07-30T09:50:43.769Z,24.00
2018-07-30T09:53:12.621Z,24.00
2018-07-30T09:55:41.831Z,23.99
2018-07-30T09:58:10.637Z,23.99
2018-07-30T10:00:44.682Z,24.03
2018-07-30T10:03:13.558Z,24.08
2018-07-30T10:05:42.346Z,24.12
2018-07-30T10:08:11.140Z,24.13
2018-07-30T10:10:39.961Z,24.17
2018-07-30T10:13:08.757Z,24.25
2018-07-30T10:15:37.567Z,24.25
2018-07-30T10:18:06.958Z,24.25
2018-07-30T10:20:35.734Z,24.29
2018-07-30T10:23:04.519Z,24.31
2018-07-30T10:25:33.299Z,24.32
2018-07-30T10:28:02.082Z,24.34
2018-07-30T10:30:31.011Z,24.39
2018-07-30T10:32:59.804Z,24.41
2018-07-30T10:35:28.574Z,24.44
2018-07-30T10:37:57.362Z,24.55
2018-07-30T10:40:26.180Z,24.58
2018-07-30T10:42:54.945Z,24.57
2018-07-30T10:45:23.821Z,24.65
2018-07-30T10:47:52.597Z,24.67
2018-07-30T10:50:21.475Z,24.68
2018-07-30T10:52:50.261Z,24.71
2018-07-30T10:55:19.022Z,24.74
2018-07-30T10:57:47.821Z,24.76
2018-07-30T11:00:16.649Z,24.76
2018-07-30T11:02:45.457Z,24.74
2018-07-30T11:05:14.270Z,24.74
2018-07-30T11:07:43.069Z,24.75
2018-07-30T11:10:11.836Z,24.77
2018-07-30T11:12:40.606Z,24.78
2018-07-30T11:15:09.419Z,24.82
2018-07-30T11:17:38.224Z,24.79
2018-07-30T11:20:07.055Z,24.82
2018-07-30T11:22:35.850Z,24.85
2018-07-30T11:25:04.715Z,24.86
2018-07-30T11:27:33.557Z,24.86
2018-07-30T11:30:02.354Z,24.90
2018-07-30T11:32:31.182Z,24.94
2018-07-30T11:34:59.956Z,24.95
2018-07-30T11:37:28.706Z,24.93
2018-07-30T11:39:57.475Z,24.93
2018-07-30T11:42:26.291Z,24.92
2018-07-30T11:44:55.125Z,24.94
2018-07-30T11:47:23.930Z,24.93
2018-07-30T11:49:52.726Z,24.88
2018-07-30T11:52:21.533Z,24.91
2018-07-30T11:54:50.500Z,24.92
2018-07-30T11:57:19.325Z,24.95
2018-07-30T11:59:48.116Z,24.98
2018-07-30T12:02:17.016Z,24.98
2018-07-30T12:04:45.886Z,24.97
2018-07-30T12:07:14.723Z,24.98
2018-07-30T12:09:43.490Z,24.97
2018-07-30T12:12:12.341Z,24.97
2018-07-30T12:14:41.205Z,24.99
2018-07-30T12:17:09.994Z,25.07
2018-07-30T12:19:38.797Z,25.11
2018-07-30T12:22:07.617Z,25.11
2018-07-30T12:24:36.571Z,25.11
2018-07-30T12:27:05.429Z,25.12
2018-07-30T12:29:34.245Z,25.16
2018-07-30T12:32:03.167Z,25.21
2018-07-30T12:34:31.929Z,25.21
2018-07-30T12:37:00.796Z,25.20
2018-07-30T12:39:29.593Z,25.20
2018-07-30T12:41:58.475Z,25.20
2018-07-30T12:44:27.245Z,25.24
2018-07-30T12:46:56.038Z,25.28
2018-07-30T12:49:24.817Z,25.25
2018-07-30T12:51:53.601Z,25.27
2018-07-30T12:54:22.390Z,25.30
2018-07-30T12:56:51.152Z,25.32
2018-07-30T12:59:19.925Z,25.35
2018-07-30T13:01:48.677Z,25.37
2018-07-30T13:04:17.522Z,25.36
2018-07-30T13:06:46.302Z,25.36
2018-07-30T13:09:15.278Z,25.36
2018-07-30T13:11:44.093Z,25.39
2018-07-30T13:14:12.862Z,25.45
2018-07-30T13:16:41.648Z,25.45
2018-07-30T13:19:10.442Z,25.42
2018-07-30T13:21:39.228Z,25.43
2018-07-30T13:24:08.034Z,25.45
2018-07-30T13:26:37.447Z,25.48
2018-07-30T13:29:06.276Z,25.49
2018-07-30T13:31:35.089Z,25.47
2018-07-30T13:34:03.877Z,25.49
2018-07-30T13:36:32.637Z,25.52
2018-07-30T13:39:01.419Z,25.49
2018-07-30T13:41:30.215Z,25.50
2018-07-30T13:43:58.993Z,25.53
2018-07-30T13:46:28.051Z,25.46
2018-07-30T13:48:56.856Z,25.50
2018-07-30T13:51:25.649Z,25.34
2018-07-30T13:53:54.637Z,25.46
2018-07-30T13:56:23.452Z,25.46
2018-07-30T13:58:52.411Z,25.39
2018-07-30T14:01:21.374Z,25.41
2018-07-30T14:03:50.211Z,25.39
2018-07-30T14:06:19.072Z,25.34
2018-07-30T14:08:48.062Z,25.36
2018-07-30T14:11:16.860Z,25.40
2018-07-30T14:13:45.674Z,25.39
2018-07-30T14:16:14.500Z,25.36
2018-07-30T14:18:43.286Z,25.38
2018-07-30T14:21:12.086Z,25.38
2018-07-30T14:23:40.848Z,25.39
2018-07-30T14:26:09.641Z,25.35
2018-07-30T14:28:38.447Z,25.31
2018-07-30T14:31:07.434Z,25.26
2018-07-30T14:33:36.228Z,25.24
2018-07-30T14:36:05.270Z,25.05
2018-07-30T14:38:34.061Z,25.19
2018-07-30T14:41:02.846Z,25.13
2018-07-30T14:43:31.656Z,25.21
2018-07-30T14:46:00.447Z,25.23
2018-07-30T14:48:29.285Z,25.24
2018-07-30T14:50:58.071Z,25.11
2018-07-30T14:53:26.914Z,25.21
2018-07-30T14:55:55.756Z,25.25
2018-07-30T14:58:24.583Z,25.27
2018-07-30T15:00:53.373Z,25.26
2018-07-30T15:03:22.165Z,25.25
2018-07-30T15:05:51.017Z,25.22
2018-07-30T15:08:19.809Z,25.24
2018-07-30T15:10:48.610Z,25.29
2018-07-30T15:13:17.434Z,25.29
2018-07-30T15:15:46.218Z,25.35
2018-07-30T15:18:14.979Z,25.39
2018-07-30T15:20:43.795Z,25.41
2018-07-30T15:23:12.569Z,25.44
2018-07-30T15:25:41.387Z,25.42
2018-07-30T15:28:10.405Z,25.42
2018-07-30T15:30:39.200Z,25.40
2018-07-30T15:33:08.000Z,25.40
2018-07-30T15:35:43.349Z,25.44
2018-07-30T15:38:12.274Z,25.42
2018-07-30T15:40:41.164Z,25.34
2018-07-30T15:43:09.957Z,25.41
2018-07-30T15:45:38.787Z,25.36
2018-07-30T15:48:07.701Z,25.40
2018-07-30T15:50:36.485Z,25.43
2018-07-30T15:53:05.303Z,25.42
2018-07-30T15:55:34.085Z,25.40
2018-07-30T15:58:02.944Z,25.40
2018-07-30T16:00:31.765Z,25.41
2018-07-30T16:03:00.589Z,25.17
2018-07-30T16:05:29.399Z,25.38
2018-07-30T16:07:58.256Z,25.39
2018-07-30T16:10:27.097Z,25.40
2018-07-30T16:12:55.872Z,25.39
2018-07-30T16:15:25.373Z,25.40
2018-07-30T16:17:54.315Z,25.37
2018-07-30T16:20:23.159Z,25.32
2018-07-30T16:22:51.942Z,25.30
2018-07-30T16:25:20.792Z,25.29
2018-07-30T16:27:49.589Z,25.31
2018-07-30T16:30:18.491Z,25.30
2018-07-30T16:32:47.319Z,25.29
2018-07-30T16:35:16.091Z,25.27
2018-07-30T16:37:44.989Z,25.24
2018-07-30T16:40:13.827Z,25.23
2018-07-30T16:42:42.798Z,25.21
2018-07-30T16:45:11.684Z,25.20
2018-07-30T16:47:40.524Z,25.20
2018-07-30T16:50:09.964Z,25.12
2018-07-30T16:52:38.823Z,25.10
2018-07-30T16:55:07.968Z,25.11
2018-07-30T16:57:36.794Z,25.11
2018-07-30T17:00:08.066Z,25.01
2018-07-30T17:02:36.893Z,25.07
2018-07-30T17:05:06.195Z,25.01
2018-07-30T17:07:34.971Z,25.02
2018-07-30T17:10:03.857Z,24.99
2018-07-30T17:12:32.693Z,24.98
2018-07-30T17:15:01.486Z,24.92
2018-07-30T17:17:30.453Z,24.87
2018-07-30T17:19:59.317Z,24.82
2018-07-30T17:22:28.157Z,24.82
2018-07-30T17:24:56.951Z,24.81
2018-07-30T17:27:25.971Z,24.75
2018-07-30T17:29:54.836Z,24.72
2018-07-30T17:32:23.883Z,24.70
2018-07-30T17:34:52.891Z,24.68
2018-07-30T17:37:21.715Z,24.66
2018-07-30T17:39:50.638Z,24.49
2018-07-30T17:42:19.458Z,24.53
2018-07-30T17:44:48.255Z,24.48
2018-07-30T17:47:17.054Z,24.48
2018-07-30T17:49:45.866Z,24.42
2018-07-30T17:52:14.637Z,24.50
2018-07-30T17:54:43.509Z,24.46
2018-07-30T17:57:12.349Z,24.43
2018-07-30T17:59:41.139Z,24.41
2018-07-30T18:02:09.913Z,24.37
2018-07-30T18:04:38.700Z,24.32
2018-07-30T18:07:07.526Z,24.36
2018-07-30T18:09:36.328Z,24.36
2018-07-30T18:12:05.158Z,24.33
2018-07-30T18:14:33.976Z,24.28
2018-07-30T18:17:02.730Z,24.27
2018-07-30T18:19:31.509Z,24.25
2018-07-30T18:22:00.269Z,24.22
2018-07-30T18:24:29.098Z,24.08
2018-07-30T18:26:57.904Z,24.14
2018-07-30T18:29:26.724Z,24.07
2018-07-30T18:31:55.493Z,24.05
2018-07-30T18:34:24.489Z,24.07
2018-07-30T18:36:53.337Z,24.06
2018-07-30T18:39:22.148Z,24.03
2018-07-30T18:41:50.987Z,24.04
2018-07-30T18:44:19.812Z,23.99
2018-07-30T18:46:48.611Z,24.05
2018-07-30T18:49:17.426Z,24.02
2018-07-30T18:51:46.217Z,23.98
2018-07-30T18:54:15.001Z,23.86
2018-07-30T18:56:43.810Z,23.85
2018-07-30T18:59:12.712Z,23.88
2018-07-30T19:01:41.535Z,20.46
2018-07-30T19:04:10.338Z,23.84
2018-07-30T19:06:39.193Z,23.81
2018-07-30T19:09:09.217Z,23.68
2018-07-30T19:11:38.121Z,23.80
2018-07-30T19:14:07.120Z,23.81
2018-07-30T19:16:35.920Z,23.80
2018-07-30T19:19:04.797Z,23.81
2018-07-30T19:21:33.592Z,23.69
2018-07-30T19:24:02.458Z,23.63
2018-07-30T19:26:31.225Z,23.67
2018-07-30T19:29:00.034Z,23.53
2018-07-30T19:31:28.805Z,23.67
2018-07-30T19:33:57.589Z,23.75
2018-07-30T19:36:27.318Z,23.65
2018-07-30T19:38:56.106Z,23.68
2018-07-30T19:41:24.907Z,23.69
2018-07-30T19:43:53.757Z,23.69
2018-07-30T19:46:22.641Z,23.67
2018-07-30T19:48:51.673Z,23.60
2018-07-30T19:51:20.465Z,23.52
2018-07-30T19:53:49.838Z,23.45
2018-07-30T19:56:18.665Z,23.57
2018-07-30T19:58:47.464Z,23.62
2018-07-30T20:01:16.265Z,23.57
2018-07-30T20:03:45.047Z,23.59
2018-07-30T20:06:13.943Z,23.59
2018-07-30T20:08:42.749Z,23.58
2018-07-30T20:11:11.677Z,23.58
2018-07-30T20:13:40.506Z,23.59
2018-07-30T20:16:09.293Z,23.59
2018-07-30T20:18:38.163Z,23.59
2018-07-30T20:21:06.977Z,23.57
2018-07-30T20:23:35.785Z,23.55
2018-07-30T20:26:04.605Z,23.53
2018-07-30T20:28:33.394Z,23.51
2018-07-30T20:31:02.224Z,23.50
2018-07-30T20:33:31.163Z,23.41
2018-07-30T20:36:00.016Z,23.46
2018-07-30T20:38:28.885Z,23.45
2018-07-30T20:40:57.750Z,23.44
2018-07-30T20:43:26.521Z,23.41
2018-07-30T20:45:55.441Z,23.42
2018-07-30T20:48:24.657Z,23.37
2018-07-30T20:50:53.585Z,22.76
2018-07-30T20:53:22.474Z,23.41
2018-07-30T20:55:51.491Z,23.33
2018-07-30T20:58:20.279Z,23.39
2018-07-30T21:00:49.116Z,23.41
2018-07-30T21:03:18.130Z,23.37
2018-07-30T21:05:46.954Z,23.36
2018-07-30T21:08:16.370Z,23.38
2018-07-30T21:10:46.236Z,23.26
2018-07-30T21:13:16.410Z,23.35
2018-07-30T21:15:45.518Z,23.35
2018-07-30T21:18:14.319Z,23.33
2018-07-30T21:20:43.136Z,23.28
2018-07-30T21:23:11.977Z,23.31
2018-07-30T21:25:40.925Z,23.29
2018-07-30T21:30:37.441Z,23.26
2018-07-30T21:33:06.450Z,23.21
2018-07-30T21:35:35.277Z,23.20
2018-07-30T21:38:05.191Z,23.17
2018-07-30T21:40:34.038Z,23.16
2018-07-30T21:43:02.889Z,23.09
2018-07-30T21:45:31.725Z,23.15
2018-07-30T21:48:00.736Z,23.10
2018-07-30T21:50:29.637Z,23.01
2018-07-30T21:52:58.421Z,23.09
2018-07-30T21:55:27.265Z,23.08
2018-07-30T21:57:56.072Z,23.15
2018-07-30T22:00:27.163Z,23.02
2018-07-30T22:02:57.186Z,22.95
2018-07-30T22:05:26.053Z,22.96
2018-07-30T22:07:54.860Z,23.06
2018-07-30T22:10:24.727Z,23.01
2018-07-30T22:12:55.351Z,22.92
2018-07-30T22:15:24.711Z,22.97
2018-07-30T22:17:53.596Z,23.01
2018-07-30T22:20:22.388Z,23.02
2018-07-30T22:22:51.252Z,23.01
2018-07-30T22:25:20.114Z,23.00
2018-07-30T22:27:48.969Z,22.99
2018-07-30T22:30:17.800Z,22.99
2018-07-30T22:32:46.617Z,22.95
2018-07-30T22:35:15.425Z,22.90
2018-07-30T22:37:44.237Z,22.90
2018-07-30T22:40:13.030Z,22.93
2018-07-30T22:42:41.888Z,22.92
2018-07-30T22:45:10.669Z,22.89
2018-07-30T22:47:39.495Z,22.84
2018-07-30T22:50:08.325Z,22.89
2018-07-30T22:52:37.161Z,22.91
2018-07-30T22:55:06.282Z,22.88
2018-07-30T22:57:35.050Z,22.73
2018-07-30T23:00:04.198Z,22.76
2018-07-30T23:02:33.053Z,22.74
2018-07-30T23:05:01.870Z,22.54
2018-07-30T23:07:30.912Z,22.72
2018-07-30T23:09:59.717Z,22.79
2018-07-30T23:12:28.526Z,22.78
2018-07-30T23:14:57.350Z,22.80
2018-07-30T23:17:26.195Z,22.61
2018-07-30T23:19:54.988Z,22.48
2018-07-30T23:22:23.858Z,22.68
2018-07-30T23:24:52.649Z,22.74
2018-07-30T23:27:21.465Z,22.68
2018-07-30T23:29:50.285Z,22.48
2018-07-30T23:32:19.277Z,22.45
2018-07-30T23:34:48.102Z,22.50
2018-07-30T23:37:17.068Z,22.64
2018-07-30T23:39:45.785Z,22.60
2018-07-30T23:42:14.632Z,22.70
2018-07-30T23:44:43.468Z,22.68
2018-07-30T23:47:12.291Z,22.66
2018-07-30T23:49:41.256Z,22.66
2018-07-30T23:52:10.043Z,22.64
2018-07-30T23:54:38.875Z,22.69
2018-07-30T23:57:07.724Z,22.72
2018-07-30T23:59:36.500Z,22.62
